createdAt,value
2018-07-04T00:01:59.748Z,9.40
2018-07-04T00:04:38.661Z,9.30
2018-07-04T00:07:17.582Z,9.30
2018-07-04T00:09:56.531Z,9.30
2018-07-04T00:12:35.387Z,9.20
2018-07-04T00:17:47.520Z,9.30
2018-07-04T00:20:32.318Z,9.30
2018-07-04T00:23:11.293Z,9.20
2018-07-04T00:30:57.256Z,9.10
2018-07-04T00:33:36.074Z,9.00
2018-07-04T00:36:14.948Z,9.00
2018-07-04T00:38:54.105Z,8.90
2018-07-04T00:41:33.114Z,9.00
2018-07-04T00:46:45.819Z,9.00
2018-07-04T00:49:24.748Z,8.90
2018-07-04T00:52:03.749Z,8.90
2018-07-04T00:54:42.724Z,8.80
2018-07-04T00:59:54.950Z,8.80
2018-07-04T01:02:34.045Z,8.80
2018-07-04T01:05:13.006Z,8.80
2018-07-04T01:07:52.133Z,8.80
2018-07-04T01:10:31.298Z,8.70
2018-07-04T01:13:10.156Z,8.70
2018-07-04T01:15:49.203Z,8.70
2018-07-04T01:21:07.176Z,8.60
2018-07-04T01:23:46.327Z,8.60
2018-07-04T01:26:25.161Z,8.60
2018-07-04T01:29:04.130Z,8.60
2018-07-04T01:31:43.246Z,8.50
2018-07-04T01:34:22.356Z,8.50
2018-07-04T01:37:01.427Z,8.50
2018-07-04T01:42:13.463Z,8.40
2018-07-04T01:44:52.530Z,8.40
2018-07-04T01:47:31.669Z,8.30
2018-07-04T01:50:10.722Z,8.20
2018-07-04T01:52:49.942Z,8.20
2018-07-04T01:58:02.196Z,8.10
2018-07-04T02:00:41.197Z,8.10
2018-07-04T02:05:53.868Z,8.00
2018-07-04T02:08:33.089Z,8.00
2018-07-04T02:11:12.177Z,8.00
2018-07-04T02:13:51.203Z,7.90
2018-07-04T02:19:03.390Z,7.90
2018-07-04T02:21:42.371Z,7.90
2018-07-04T02:24:21.471Z,7.80
2018-07-04T02:27:00.400Z,7.80
2018-07-04T02:29:39.483Z,7.80
2018-07-04T02:32:18.533Z,7.70
2018-07-04T02:34:59.823Z,7.70
2018-07-04T02:42:45.126Z,7.60
2018-07-04T02:45:24.221Z,7.60
2018-07-04T02:48:03.405Z,7.60
2018-07-04T02:50:42.526Z,7.60
2018-07-04T02:53:21.394Z,7.50
2018-07-04T02:56:00.553Z,7.50
2018-07-04T02:58:39.546Z,7.50
2018-07-04T03:01:18.622Z,7.50
2018-07-04T03:03:57.614Z,7.50
2018-07-04T03:06:36.662Z,7.40
2018-07-04T03:09:15.503Z,7.40
2018-07-04T03:11:54.532Z,7.40
2018-07-04T03:14:33.311Z,7.40
2018-07-04T03:17:12.397Z,7.40
2018-07-04T03:19:51.466Z,7.40
2018-07-04T03:22:30.611Z,7.40
2018-07-04T03:25:09.725Z,7.40
2018-07-04T03:27:48.699Z,7.40
2018-07-04T03:30:27.748Z,7.40
2018-07-04T03:35:40.154Z,7.40
2018-07-04T03:38:19.037Z,7.50
2018-07-04T03:40:58.009Z,7.50
2018-07-04T03:43:37.054Z,7.50
2018-07-04T03:46:16.136Z,7.50
2018-07-04T03:48:55.279Z,7.50
2018-07-04T03:54:07.793Z,7.60
2018-07-04T03:56:46.981Z,7.60
2018-07-04T03:59:25.959Z,7.70
2018-07-04T04:02:04.935Z,7.70
2018-07-04T04:04:44.018Z,7.80
2018-07-04T04:07:23.028Z,7.90
2018-07-04T04:10:02.027Z,7.90
2018-07-04T04:12:41.246Z,7.90
2018-07-04T04:15:20.651Z,8.00
2018-07-04T04:20:32.966Z,8.10
2018-07-04T04:25:45.078Z,8.30
2018-07-04T04:28:24.209Z,8.30
2018-07-04T04:33:36.632Z,8.50
2018-07-04T04:38:48.785Z,8.60
2018-07-04T04:41:27.906Z,8.80
2018-07-04T04:44:07.060Z,8.80
2018-07-04T04:46:46.177Z,8.90
2018-07-04T04:49:25.351Z,9.00
2018-07-04T04:52:04.362Z,9.10
2018-07-04T04:54:43.315Z,9.20
2018-07-04T04:59:55.326Z,9.40
2018-07-04T05:02:34.331Z,9.50
2018-07-04T05:05:13.453Z,9.60
2018-07-04T05:07:52.483Z,9.70
2018-07-04T05:10:31.364Z,9.80
2018-07-04T05:13:10.258Z,9.90
2018-07-04T05:18:22.673Z,10.10
2018-07-04T05:21:01.671Z,10.30
2018-07-04T05:23:40.799Z,10.60
2018-07-04T05:26:20.028Z,11.10
2018-07-04T05:28:58.980Z,11.70
2018-07-04T05:31:38.097Z,12.10
2018-07-04T05:34:17.260Z,12.40
2018-07-04T05:39:29.358Z,12.80
2018-07-04T05:42:08.570Z,13.00
2018-07-04T05:44:47.778Z,13.40
2018-07-04T05:47:26.830Z,13.70
2018-07-04T05:50:05.711Z,14.00
2018-07-04T05:52:44.670Z,14.60
2018-07-04T05:55:23.902Z,15.70
2018-07-04T05:58:02.827Z,17.10
2018-07-04T06:00:42.051Z,18.50
2018-07-04T06:03:21.265Z,19.70
2018-07-04T06:06:00.209Z,20.90
2018-07-04T06:08:39.197Z,21.50
2018-07-04T06:11:18.309Z,22.20
2018-07-04T06:13:57.265Z,22.60
2018-07-04T06:16:36.353Z,22.70
2018-07-04T06:19:15.404Z,22.50
2018-07-04T06:24:27.586Z,22.70
2018-07-04T06:27:06.814Z,22.90
2018-07-04T06:29:46.031Z,23.50
2018-07-04T06:32:25.172Z,24.00
2018-07-04T06:35:04.215Z,24.20
2018-07-04T06:37:41.967Z,24.70
2018-07-04T06:40:09.170Z,25.40
2018-07-04T06:42:36.378Z,26.20
2018-07-04T06:45:02.964Z,26.60
2018-07-04T06:47:29.816Z,27.00
2018-07-04T06:52:23.625Z,28.00
2018-07-04T06:54:50.670Z,28.20
2018-07-04T06:57:18.505Z,28.60
2018-07-04T07:02:13.619Z,29.20
2018-07-04T07:07:28.862Z,29.30
2018-07-04T07:10:08.353Z,29.40
2018-07-04T07:15:21.772Z,29.00
2018-07-04T07:18:00.786Z,28.70
2018-07-04T07:20:41.132Z,28.30
2018-07-04T07:23:20.434Z,28.50
2018-07-04T07:25:59.530Z,28.50
2018-07-04T07:28:38.733Z,28.60
2018-07-04T07:31:19.798Z,28.80
2018-07-04T07:33:59.083Z,28.60
2018-07-04T07:36:39.821Z,28.60
2018-07-04T07:39:20.900Z,28.70
2018-07-04T07:42:01.142Z,29.00
2018-07-04T07:44:40.311Z,29.40
2018-07-04T07:47:19.479Z,29.40
2018-07-04T07:49:59.684Z,29.40
2018-07-04T07:52:38.803Z,29.70
2018-07-04T07:55:17.638Z,29.80
2018-07-04T07:57:56.946Z,29.70
2018-07-04T08:00:36.232Z,29.90
2018-07-04T08:05:48.795Z,30.20
2018-07-04T08:08:27.793Z,30.20
2018-07-04T08:11:06.918Z,30.30
2018-07-04T08:16:18.996Z,30.40
2018-07-04T08:18:58.105Z,30.60
2018-07-04T08:21:37.225Z,30.60
2018-07-04T08:24:16.450Z,30.60
2018-07-04T08:26:55.431Z,30.70
2018-07-04T08:29:34.350Z,30.50
2018-07-04T08:32:13.604Z,30.50
2018-07-04T08:37:27.020Z,30.50
2018-07-04T08:40:06.190Z,30.50
2018-07-04T08:42:45.584Z,30.60
2018-07-04T08:45:24.653Z,30.70
2018-07-04T08:48:03.836Z,30.60
2018-07-04T08:50:43.043Z,30.80
2018-07-04T08:53:22.184Z,30.70
2018-07-04T08:56:01.473Z,30.50
2018-07-04T09:03:46.893Z,30.90
2018-07-04T09:06:26.089Z,30.90
2018-07-04T09:09:05.190Z,30.90
2018-07-04T09:11:44.599Z,30.90
2018-07-04T09:16:56.879Z,31.00
2018-07-04T09:19:35.878Z,31.10
2018-07-04T09:22:14.799Z,31.10
2018-07-04T09:24:54.066Z,31.30
2018-07-04T09:27:33.221Z,31.50
2018-07-04T09:30:13.024Z,31.70
2018-07-04T09:32:52.143Z,31.70
2018-07-04T09:35:31.005Z,31.50
2018-07-04T09:38:10.114Z,31.60
2018-07-04T09:40:49.508Z,31.80
2018-07-04T09:43:28.487Z,32.10
2018-07-04T09:46:07.562Z,32.20
2018-07-04T09:48:46.681Z,32.20
2018-07-04T09:51:25.807Z,32.20
2018-07-04T09:54:04.926Z,32.30
2018-07-04T10:01:51.269Z,32.00
2018-07-04T10:04:30.442Z,31.40
2018-07-04T10:07:09.472Z,31.10
2018-07-04T10:09:48.502Z,30.90
2018-07-04T10:12:27.577Z,30.90
2018-07-04T10:17:39.976Z,31.00
2018-07-04T10:20:18.840Z,30.80
2018-07-04T10:22:57.814Z,30.80
2018-07-04T10:25:36.660Z,30.70
2018-07-04T10:28:15.792Z,30.50
2018-07-04T10:30:54.712Z,30.50
2018-07-04T10:33:33.704Z,30.20
2018-07-04T10:36:12.718Z,30.00
2018-07-04T10:38:51.810Z,29.90
2018-07-04T10:44:04.425Z,29.70
2018-07-04T10:46:43.370Z,29.70
2018-07-04T10:51:55.852Z,29.90
2018-07-04T10:54:35.104Z,30.10
2018-07-04T10:57:14.132Z,30.30
2018-07-04T10:59:53.031Z,30.50
2018-07-04T11:02:32.266Z,30.60
2018-07-04T11:05:11.279Z,30.50
2018-07-04T11:07:50.458Z,30.30
2018-07-04T11:10:29.521Z,30.10
2018-07-04T11:13:08.441Z,30.10
2018-07-04T11:15:47.532Z,30.10
2018-07-04T11:18:26.681Z,30.00
2018-07-04T11:23:38.905Z,29.60
2018-07-04T11:28:51.158Z,29.10
2018-07-04T11:31:30.192Z,28.90
2018-07-04T11:34:09.197Z,28.70
2018-07-04T11:36:48.297Z,28.60
2018-07-04T11:39:27.262Z,28.60
2018-07-04T11:42:06.132Z,28.60
2018-07-04T11:44:45.218Z,28.80
2018-07-04T11:47:11.798Z,29.00
2018-07-04T11:49:38.462Z,29.10
2018-07-04T11:54:32.220Z,29.10
2018-07-04T11:56:58.797Z,29.00
2018-07-04T11:59:25.414Z,28.90
2018-07-04T12:04:31.526Z,28.80
2018-07-04T12:07:01.883Z,28.90
2018-07-04T12:09:28.667Z,29.00
2018-07-04T12:11:55.279Z,29.30
2018-07-04T12:14:21.865Z,29.60
2018-07-04T12:16:48.393Z,29.60
2018-07-04T12:19:14.989Z,29.80
2018-07-04T12:21:41.875Z,29.90
2018-07-04T12:24:08.630Z,29.80
2018-07-04T12:26:35.747Z,29.70
2018-07-04T12:29:02.508Z,29.70
2018-07-04T12:31:29.374Z,29.70
2018-07-04T12:33:55.935Z,29.80
2018-07-04T12:36:22.606Z,29.80
2018-07-04T12:38:49.314Z,30.00
2018-07-04T12:41:15.896Z,30.20
2018-07-04T12:43:42.810Z,30.20
2018-07-04T12:46:09.436Z,30.30
2018-07-04T12:51:03.422Z,30.50
2018-07-04T12:53:30.075Z,30.70
2018-07-04T12:58:42.539Z,30.90
2018-07-04T13:01:21.577Z,30.90
2018-07-04T13:04:00.501Z,30.70
2018-07-04T13:06:39.420Z,30.70
2018-07-04T13:09:18.363Z,30.80
2018-07-04T13:11:57.290Z,30.80
2018-07-04T13:14:36.205Z,31.10
2018-07-04T13:17:15.186Z,31.20
2018-07-04T13:19:54.167Z,31.20
2018-07-04T13:22:33.006Z,31.20
2018-07-04T13:25:11.931Z,31.20
2018-07-04T13:27:50.945Z,30.90
2018-07-04T13:30:29.862Z,31.00
2018-07-04T13:33:08.890Z,31.20
2018-07-04T13:35:47.934Z,31.20
2018-07-04T13:38:27.150Z,31.40
2018-07-04T13:41:06.124Z,31.40
2018-07-04T13:46:18.572Z,31.30
2018-07-04T13:48:57.620Z,31.30
2018-07-04T13:51:36.757Z,31.40
2018-07-04T13:54:15.887Z,31.10
2018-07-04T13:56:55.149Z,30.70
2018-07-04T13:59:34.286Z,30.50
2018-07-04T14:02:13.323Z,30.70
2018-07-04T14:04:52.441Z,30.90
2018-07-04T14:07:31.481Z,31.00
2018-07-04T14:12:43.732Z,31.10
2018-07-04T14:15:22.955Z,31.00
2018-07-04T14:18:02.398Z,30.90
2018-07-04T14:20:41.575Z,30.80
2018-07-04T14:23:20.575Z,30.50
2018-07-04T14:25:59.740Z,30.40
2018-07-04T14:28:38.926Z,30.40
2018-07-04T14:31:17.956Z,30.30
2018-07-04T14:33:57.081Z,30.30
2018-07-04T14:36:36.076Z,30.40
2018-07-04T14:41:48.331Z,30.70
2018-07-04T14:44:27.596Z,30.80
2018-07-04T14:47:06.609Z,30.90
2018-07-04T14:49:45.707Z,30.80
2018-07-04T14:52:25.158Z,30.50
2018-07-04T14:55:04.014Z,30.40
2018-07-04T14:57:43.011Z,30.10
2018-07-04T15:00:22.075Z,30.00
2018-07-04T15:03:01.563Z,30.00
2018-07-04T15:05:40.716Z,29.90
2018-07-04T15:08:19.813Z,29.70
2018-07-04T15:13:31.886Z,29.30
2018-07-04T15:16:10.909Z,29.40
2018-07-04T15:18:50.032Z,29.40
2018-07-04T15:21:29.131Z,29.30
2018-07-04T15:24:08.385Z,29.20
2018-07-04T15:26:47.517Z,29.20
2018-07-04T15:29:26.513Z,29.30
2018-07-04T15:32:05.479Z,29.30
2018-07-04T15:34:44.554Z,29.30
2018-07-04T15:39:56.822Z,29.40
2018-07-04T15:42:36.092Z,29.30
2018-07-04T15:45:15.072Z,29.20
2018-07-04T15:47:53.982Z,29.10
2018-07-04T15:50:32.889Z,29.10
2018-07-04T15:53:11.867Z,29.30
2018-07-04T15:55:50.869Z,29.50
2018-07-04T15:58:29.933Z,29.50
2018-07-04T16:01:08.918Z,29.60
2018-07-04T16:03:47.902Z,29.50
2018-07-04T16:06:26.984Z,29.40
2018-07-04T16:09:06.188Z,29.20
2018-07-04T16:14:19.912Z,28.80
2018-07-04T16:16:58.985Z,28.70
2018-07-04T16:19:38.164Z,28.60
2018-07-04T16:22:17.107Z,28.60
2018-07-04T16:24:56.256Z,28.50
2018-07-04T16:30:08.423Z,28.40
2018-07-04T16:32:47.909Z,28.40
2018-07-04T16:35:26.886Z,28.40
2018-07-04T16:38:06.029Z,28.40
2018-07-04T16:40:45.044Z,28.30
2018-07-04T16:43:24.238Z,28.10
2018-07-04T16:46:03.195Z,28.00
2018-07-04T16:48:42.017Z,27.90
2018-07-04T16:51:20.965Z,27.80
2018-07-04T16:54:00.000Z,27.70
2018-07-04T16:56:39.190Z,27.50
2018-07-04T16:59:18.347Z,27.20
2018-07-04T17:01:57.246Z,27.20
2018-07-04T17:04:36.233Z,26.90
2018-07-04T17:07:15.221Z,26.80
2018-07-04T17:09:54.433Z,26.70
2018-07-04T17:12:33.327Z,26.50
2018-07-04T17:17:45.583Z,26.10
2018-07-04T17:20:24.418Z,25.90
2018-07-04T17:23:03.366Z,25.80
2018-07-04T17:25:42.539Z,25.60
2018-07-04T17:28:21.542Z,25.50
2018-07-04T17:31:00.496Z,25.40
2018-07-04T17:33:39.706Z,25.30
2018-07-04T17:36:18.657Z,25.30
2018-07-04T17:38:57.643Z,25.40
2018-07-04T17:41:36.640Z,25.40
2018-07-04T17:44:15.802Z,25.40
2018-07-04T17:46:54.788Z,25.30
2018-07-04T17:49:33.813Z,25.20
2018-07-04T17:52:12.899Z,25.30
2018-07-04T17:54:52.044Z,25.30
2018-07-04T17:57:31.058Z,25.30
2018-07-04T18:00:10.096Z,25.30
2018-07-04T18:05:22.137Z,25.00
2018-07-04T18:08:01.323Z,24.90
2018-07-04T18:10:40.426Z,24.70
2018-07-04T18:13:19.459Z,24.50
2018-07-04T18:15:58.511Z,24.50
2018-07-04T18:18:37.472Z,24.50
2018-07-04T18:21:22.192Z,24.40
2018-07-04T18:24:01.320Z,24.30
2018-07-04T18:26:40.386Z,24.00
2018-07-04T18:29:19.207Z,23.90
2018-07-04T18:34:32.279Z,23.90
2018-07-04T18:37:11.422Z,23.90
2018-07-04T18:39:50.454Z,23.90
2018-07-04T18:42:29.900Z,23.80
2018-07-04T18:45:08.814Z,23.60
2018-07-04T18:47:47.877Z,23.40
2018-07-04T18:50:26.922Z,23.40
2018-07-04T18:55:39.654Z,23.20
2018-07-04T19:00:51.713Z,22.90
2018-07-04T19:03:31.138Z,22.80
2018-07-04T19:06:10.101Z,22.70
2018-07-04T19:11:22.882Z,22.50
2018-07-04T19:14:02.007Z,22.50
2018-07-04T19:16:41.194Z,22.30
2018-07-04T19:19:20.497Z,22.20
2018-07-04T19:21:59.713Z,22.00
2018-07-04T19:24:38.793Z,21.90
2018-07-04T19:27:17.963Z,21.80
2018-07-04T19:29:57.082Z,21.60
2018-07-04T19:32:36.247Z,21.30
2018-07-04T19:35:15.425Z,21.10
2018-07-04T19:37:54.552Z,20.90
2018-07-04T19:40:33.899Z,20.80
2018-07-04T19:45:46.343Z,20.50
2018-07-04T19:48:25.463Z,20.30
2018-07-04T19:51:05.244Z,20.20
2018-07-04T19:53:44.243Z,20.00
2018-07-04T19:56:24.085Z,19.90
2018-07-04T19:59:03.210Z,19.90
2018-07-04T20:01:42.406Z,19.80
2018-07-04T20:04:21.635Z,19.60
2018-07-04T20:07:00.798Z,19.50
2018-07-04T20:09:40.332Z,19.40
2018-07-04T20:12:19.432Z,19.40
2018-07-04T20:14:58.928Z,19.20
2018-07-04T20:17:38.172Z,19.10
2018-07-04T20:20:17.457Z,19.00
2018-07-04T20:28:03.093Z,18.70
2018-07-04T20:30:41.952Z,18.60
2018-07-04T20:33:21.460Z,18.50
2018-07-04T20:36:00.503Z,18.40
2018-07-04T20:38:39.482Z,18.40
2018-07-04T20:41:18.848Z,18.30
2018-07-04T20:43:58.011Z,18.20
2018-07-04T20:46:37.182Z,18.20
2018-07-04T20:49:16.243Z,18.00
2018-07-04T20:51:55.245Z,18.00
2018-07-04T20:54:34.267Z,17.90
2018-07-04T20:57:13.267Z,17.80
2018-07-04T20:59:52.248Z,17.70
2018-07-04T21:02:31.306Z,17.70
2018-07-04T21:05:10.372Z,17.60
2018-07-04T21:07:49.608Z,17.50
2018-07-04T21:10:28.767Z,17.40
2018-07-04T21:13:07.863Z,17.30
2018-07-04T21:15:46.960Z,17.30
2018-07-04T21:18:25.965Z,17.20
2018-07-04T21:21:05.013Z,17.10
2018-07-04T21:23:44.199Z,17.00
2018-07-04T21:28:56.632Z,16.90
2018-07-04T21:31:35.869Z,16.80
2018-07-04T21:34:14.908Z,16.80
2018-07-04T21:36:53.919Z,16.70
2018-07-04T21:39:32.795Z,16.70
2018-07-04T21:42:11.744Z,16.60
2018-07-04T21:44:50.935Z,16.50
2018-07-04T21:47:29.977Z,16.50
2018-07-04T21:50:09.035Z,16.50
2018-07-04T21:52:48.088Z,16.40
2018-07-04T21:55:26.988Z,16.30
2018-07-04T21:58:06.289Z,16.30
2018-07-04T22:05:51.783Z,16.10
2018-07-04T22:08:30.799Z,16.00
2018-07-04T22:11:09.821Z,16.00
2018-07-04T22:13:48.948Z,15.90
2018-07-04T22:16:27.955Z,15.90
2018-07-04T22:19:07.014Z,15.90
2018-07-04T22:21:46.095Z,15.80
2018-07-04T22:24:25.218Z,15.80
2018-07-04T22:27:04.292Z,15.80
2018-07-04T22:29:43.350Z,15.80
2018-07-04T22:32:22.325Z,15.90
2018-07-04T22:35:01.405Z,15.80
2018-07-04T22:37:40.580Z,15.90
2018-07-04T22:40:19.765Z,15.90
2018-07-04T22:42:58.610Z,15.90
2018-07-04T22:45:37.530Z,15.90
2018-07-04T22:48:16.678Z,15.90
2018-07-04T22:50:55.646Z,16.00
2018-07-04T22:53:34.716Z,16.00
2018-07-04T22:56:13.814Z,16.00
2018-07-04T22:58:52.834Z,15.90
2018-07-04T23:01:31.849Z,15.90
2018-07-04T23:04:11.054Z,15.80
2018-07-04T23:06:50.225Z,15.80
2018-07-04T23:09:29.244Z,15.70
2018-07-04T23:12:08.178Z,15.70
2018-07-04T23:14:47.144Z,15.60
2018-07-04T23:17:26.307Z,15.50
2018-07-04T23:22:38.364Z,15.40
2018-07-04T23:25:17.227Z,15.30
2018-07-04T23:27:56.237Z,15.20
2018-07-04T23:30:35.091Z,15.20
2018-07-04T23:33:13.973Z,15.10
2018-07-04T23:35:52.970Z,15.00
2018-07-04T23:38:31.809Z,14.90
2018-07-04T23:41:10.895Z,14.80
2018-07-04T23:43:49.829Z,14.70
2018-07-04T23:49:02.169Z,14.60
2018-07-04T23:51:41.005Z,14.60
2018-07-04T23:54:20.130Z,14.50
2018-07-04T23:56:59.946Z,14.50
2018-07-04T23:59:39.161Z,14.50
